Time;durP1;ratioP1;P1;durP2;ratioP2;P2;SDS_P1;SDS_P2;PMS_P1;PMS_P2;Temp;Humidity;BMP_temperature;BMP_pressure;BME280_temperature;BME280_humidity;BME280_pressure;Samples;Min_cycle;Max_cycle;Signal;HPM_P1;HPM_P2
2022/11/01 00:00:07;;;;;;;11.30;6.18;;;15.30;99.90;;;;;;5032363;28;20053;-63
2022/11/01 00:02:32;;;;;;;14.98;6.30;;;15.40;99.90;;;;;;5030969;28;20029;-63
2022/11/01 00:04:58;;;;;;;10.90;5.70;;;15.50;99.90;;;;;;5032227;28;20026;-63
2022/11/01 00:07:26;;;;;;;11.55;5.50;;;15.50;99.90;;;;;;5032866;28;20064;-63
2022/11/01 00:09:51;;;;;;;9.82;5.45;;;15.60;99.90;;;;;;5047245;28;20112;-63
2022/11/01 00:12:17;;;;;;;16.73;6.03;;;15.60;99.90;;;;;;5031286;28;20101;-63
2022/11/01 00:14:42;;;;;;;9.65;5.03;;;15.60;99.90;;;;;;5032108;28;20025;-63
2022/11/01 00:17:08;;;;;;;12.55;5.78;;;15.70;99.90;;;;;;5032118;28;20488;-63
2022/11/01 00:19:33;;;;;;;12.82;5.47;;;15.70;99.90;;;;;;5032223;28;20026;-63
2022/11/01 00:21:59;;;;;;;11.90;6.05;;;15.70;99.90;;;;;;5032307;28;20101;-63
2022/11/01 00:24:24;;;;;;;12.50;6.28;;;15.70;99.90;;;;;;5032010;28;20032;-63
2022/11/01 00:26:50;;;;;;;13.07;6.03;;;15.70;99.90;;;;;;5032290;28;20032;-63
2022/11/01 00:29:15;;;;;;;11.07;5.78;;;15.70;99.90;;;;;;5027563;28;20405;-63
2022/11/01 00:31:41;;;;;;;11.20;5.95;;;15.80;99.90;;;;;;5032067;28;20113;-63
2022/11/01 00:34:07;;;;;;;11.32;6.30;;;15.80;99.90;;;;;;5031728;28;20461;-63
2022/11/01 00:36:34;;;;;;;11.13;5.90;;;15.80;99.90;;;;;;5032173;28;20469;-63
2022/11/01 00:39:00;;;;;;;14.48;5.70;;;15.80;99.90;;;;;;5031521;28;20466;-63
2022/11/01 00:41:25;;;;;;;13.20;6.22;;;15.80;99.90;;;;;;5031938;28;20076;-63
2022/11/01 00:43:51;;;;;;;10.55;6.50;;;15.80;99.90;;;;;;5031916;28;20025;-63
2022/11/01 00:46:17;;;;;;;13.02;6.47;;;15.70;99.90;;;;;;5031600;28;20076;-63
2022/11/01 00:48:42;;;;;;;10.38;5.82;;;15.70;99.90;;;;;;5030346;28;20777;-63
2022/11/01 00:51:08;;;;;;;12.85;6.85;;;15.70;99.90;;;;;;5032010;28;20385;-63
2022/11/01 00:53:34;;;;;;;12.85;6.40;;;15.70;99.90;;;;;;5031776;28;20060;-63
2022/11/01 00:56:00;;;;;;;10.98;6.15;;;15.70;99.90;;;;;;5032026;28;20033;-63
2022/11/01 00:58:26;;;;;;;11.07;6.30;;;15.70;99.90;;;;;;5031355;28;20539;-63
2022/11/01 01:00:55;;;;;;;11.43;5.80;;;15.70;99.90;;;;;;5031937;28;20060;-63
2022/11/01 01:03:20;;;;;;;17.40;7.95;;;15.70;99.90;;;;;;5031999;28;20029;-63
2022/11/01 01:05:48;;;;;;;10.65;5.85;;;15.70;99.90;;;;;;5034673;28;20029;-64
2022/11/01 01:08:14;;;;;;;13.20;7.35;;;15.70;99.90;;;;;;5035835;28;20470;-63
2022/11/01 01:10:39;;;;;;;9.52;5.32;;;15.70;99.90;;;;;;5035217;28;20096;-63
2022/11/01 01:13:05;;;;;;;9.95;5.90;;;15.70;99.90;;;;;;5035320;28;20036;-63
2022/11/01 01:15:31;;;;;;;9.93;6.18;;;15.70;99.90;;;;;;5035013;28;20445;-63
2022/11/01 01:17:56;;;;;;;17.40;7.32;;;15.80;99.90;;;;;;5032809;28;20485;-63
2022/11/01 01:20:22;;;;;;;9.90;5.72;;;15.80;99.90;;;;;;5035404;28;20018;-63
2022/11/01 01:22:48;;;;;;;13.32;5.85;;;15.80;99.90;;;;;;5034930;28;20048;-63
2022/11/01 01:25:14;;;;;;;12.95;6.40;;;15.80;99.90;;;;;;5035165;28;20009;-63
2022/11/01 01:27:40;;;;;;;9.35;5.10;;;15.80;99.90;;;;;;5034554;28;20482;-63
2022/11/01 01:30:09;;;;;;;11.52;5.55;;;15.80;99.90;;;;;;5035191;28;20052;-63
2022/11/01 01:32:35;;;;;;;11.88;6.18;;;15.80;99.90;;;;;;5034611;28;20374;-63
2022/11/01 01:35:01;;;;;;;11.05;6.15;;;15.80;99.90;;;;;;5035383;28;20060;-63
2022/11/01 01:37:26;;;;;;;10.82;5.50;;;15.80;99.90;;;;;;5034529;28;20104;-63
2022/11/01 01:39:52;;;;;;;9.52;5.88;;;15.80;99.90;;;;;;5033525;28;20454;-63
2022/11/01 01:42:32;;;;;;;9.27;5.75;;;15.90;99.90;;;;;;5034530;28;20030;-63
2022/11/01 01:44:58;;;;;;;12.07;5.95;;;15.90;99.90;;;;;;5033500;28;20073;-63
2022/11/01 01:47:28;;;;;;;10.35;5.45;;;15.90;99.90;;;;;;5034340;28;20049;-63
2022/11/01 01:50:15;;;;;;;11.55;5.35;;;15.90;99.90;;;;;;5034897;28;20477;-63
2022/11/01 01:53:29;;;;;;;8.40;5.07;;;16.00;99.90;;;;;;5034403;28;20033;-63
2022/11/01 01:56:02;;;;;;;10.60;5.60;;;16.00;99.90;;;;;;5004867;28;20035;-63
2022/11/01 01:58:32;;;;;;;8.40;4.80;;;16.00;99.90;;;;;;5034189;28;20053;-63
2022/11/01 02:00:58;;;;;;;10.30;5.38;;;16.00;99.90;;;;;;5034731;28;20026;-63
2022/11/01 02:03:28;;;;;;;10.02;4.90;;;16.00;99.90;;;;;;5033640;28;20036;-63
2022/11/01 02:05:59;;;;;;;11.13;5.20;;;16.10;99.90;;;;;;5034622;28;20052;-63
2022/11/01 02:08:26;;;;;;;13.73;5.18;;;16.10;99.90;;;;;;5033714;28;20025;-63
2022/11/01 02:10:55;;;;;;;11.60;5.50;;;16.10;99.90;;;;;;5034525;28;20017;-63
2022/11/01 02:13:20;;;;;;;9.52;5.40;;;16.10;99.90;;;;;;5034036;28;20480;-63
2022/11/01 02:16:15;;;;;;;10.60;5.18;;;16.10;99.90;;;;;;5033144;28;20513;-63
2022/11/01 02:18:47;;;;;;;9.93;4.72;;;16.20;99.90;;;;;;5033680;28;20029;-63
2022/11/01 02:21:40;;;;;;;10.25;5.10;;;16.20;99.90;;;;;;5034028;28;20493;-63
2022/11/01 02:24:22;;;;;;;8.95;4.80;;;16.20;99.90;;;;;;5033836;28;20093;-63
2022/11/01 02:26:56;;;;;;;11.20;4.75;;;16.30;99.90;;;;;;5034242;28;20498;-63
2022/11/01 02:29:29;;;;;;;10.10;4.63;;;16.40;99.90;;;;;;5033498;28;20056;-63
2022/11/01 02:32:20;;;;;;;10.23;4.60;;;16.40;99.90;;;;;;5033835;28;20501;-63
2022/11/01 02:35:03;;;;;;;6.82;4.72;;;16.50;99.90;;;;;;5034048;28;20036;-63
2022/11/01 02:37:38;;;;;;;10.88;4.20;;;16.50;99.90;;;;;;5020908;28;20026;-63
2022/11/01 02:40:15;;;;;;;9.57;4.88;;;16.60;99.90;;;;;;5033039;28;20022;-63
2022/11/01 02:42:45;;;;;;;9.13;4.00;;;16.60;99.90;;;;;;5033442;28;20032;-63
2022/11/01 02:45:35;;;;;;;8.88;4.07;;;16.60;99.90;;;;;;5033454;28;20064;-63
2022/11/01 02:48:03;;;;;;;7.93;4.00;;;16.70;99.90;;;;;;5033722;28;20030;-63
2022/11/01 02:50:45;;;;;;;8.57;4.57;;;16.80;99.90;;;;;;5032808;28;20025;-63
2022/11/01 02:53:11;;;;;;;9.52;4.32;;;16.80;99.90;;;;;;5033037;28;20573;-63
2022/11/01 02:55:37;;;;;;;7.72;3.92;;;16.80;99.90;;;;;;5032898;28;20025;-63
2022/11/01 02:58:24;;;;;;;8.02;4.13;;;16.90;99.90;;;;;;5032231;28;20432;-63
2022/11/01 03:00:51;;;;;;;11.85;4.82;;;16.90;99.90;;;;;;5047860;28;20068;-63
2022/11/01 03:03:28;;;;;;;8.77;3.67;;;16.90;99.90;;;;;;5033027;28;20529;-63
2022/11/01 03:05:59;;;;;;;7.13;3.63;;;16.90;99.90;;;;;;5031066;28;20025;-63
2022/11/01 03:08:43;;;;;;;9.45;4.20;;;17.00;99.90;;;;;;5031654;28;20021;-63
2022/11/01 03:11:10;;;;;;;8.30;3.95;;;17.00;99.90;;;;;;5031358;28;20486;-63
2022/11/01 03:13:55;;;;;;;6.57;3.17;;;16.90;99.90;;;;;;5031284;28;20026;-63
2022/11/01 03:16:42;;;;;;;7.88;3.70;;;17.00;99.90;;;;;;5032460;28;20477;-64
2022/11/01 03:19:31;;;;;;;6.45;3.65;;;17.00;99.90;;;;;;5032647;28;20025;-63
2022/11/01 03:22:07;;;;;;;7.82;3.97;;;17.00;99.90;;;;;;5033288;28;20021;-63
2022/11/01 03:25:00;;;;;;;7.97;3.80;;;16.90;99.90;;;;;;5032883;28;20048;-63
2022/11/01 03:27:38;;;;;;;6.70;3.55;;;16.90;99.90;;;;;;5031688;28;20743;-63
2022/11/01 03:30:08;;;;;;;8.05;3.30;;;16.90;99.90;;;;;;5033063;28;20030;-63
2022/11/01 03:32:37;;;;;;;;;;;16.90;99.90;;;;;;5013592;28;20120;-63
2022/11/01 03:35:03;;;;;;;6.95;3.13;;;16.90;99.90;;;;;;5040202;28;19909;-63
2022/11/01 03:37:31;;;;;;;4.75;3.25;;;16.90;99.90;;;;;;5024987;28;20409;-63
2022/11/01 03:40:01;;;;;;;8.15;4.05;;;17.00;99.90;;;;;;5027225;28;20029;-63
2022/11/01 03:42:28;;;;;;;5.75;3.63;;;17.00;99.90;;;;;;5032647;28;20366;-63
2022/11/01 03:44:58;;;;;;;7.40;3.20;;;17.00;99.90;;;;;;5032426;28;20045;-63
2022/11/01 03:47:24;;;;;;;8.20;3.28;;;17.00;99.90;;;;;;5016169;28;20022;-63
2022/11/01 03:50:14;;;;;;;6.78;3.28;;;17.00;99.90;;;;;;5022390;28;20044;-63
2022/11/01 03:52:40;;;;;;;6.53;3.72;;;17.00;99.90;;;;;;5033063;28;20029;-63
2022/11/01 03:55:16;;;;;;;7.28;3.42;;;17.00;99.90;;;;;;5024929;28;20021;-63
2022/11/01 03:57:46;;;;;;;8.95;3.65;;;17.00;99.90;;;;;;5012579;28;20033;-63
2022/11/01 04:00:17;;;;;;;6.40;2.97;;;17.00;99.90;;;;;;5013466;28;20059;-63
2022/11/01 04:02:43;;;;;;;6.53;2.72;;;17.10;99.90;;;;;;5032427;28;20140;-63
2022/11/01 04:05:10;;;;;;;5.53;2.30;;;17.10;99.90;;;;;;5031880;28;20056;-63
2022/11/01 04:07:36;;;;;;;4.40;1.63;;;17.10;99.90;;;;;;5027630;28;20022;-63
2022/11/01 04:10:02;;;;;;;4.10;2.05;;;17.10;99.90;;;;;;5022918;28;20091;-63
2022/11/01 04:12:27;;;;;;;6.63;1.80;;;17.10;99.90;;;;;;5031609;28;20378;-63
2022/11/01 04:20:33;;;;;;;4.72;1.13;;;17.00;96.70;;;;;;5032387;28;20059;-63
2022/11/01 04:22:59;;;;;;;1.45;0.52;;;17.00;95.10;;;;;;5031866;28;20501;-63
2022/11/01 04:25:25;;;;;;;2.42;0.43;;;17.00;93.20;;;;;;5021248;28;20076;-63
2022/11/01 04:27:50;;;;;;;1.15;0.30;;;16.90;92.60;;;;;;5028353;28;20013;-63
2022/11/01 04:30:16;;;;;;;1.90;0.47;;;16.90;91.40;;;;;;5032258;28;20091;-63
2022/11/01 04:32:43;;;;;;;1.45;0.30;;;16.80;91.20;;;;;;5031396;28;20432;-63
2022/11/01 04:35:11;;;;;;;1.50;0.30;;;16.80;91.00;;;;;;5030566;28;20028;-63
2022/11/01 04:37:36;;;;;;;3.90;0.50;;;16.70;91.00;;;;;;5031447;28;20017;-63
2022/11/01 04:40:03;;;;;;;2.80;0.40;;;16.60;90.90;;;;;;5035105;28;20470;-63
2022/11/01 04:42:28;;;;;;;3.10;0.30;;;16.60;91.00;;;;;;5033219;28;20059;-63
2022/11/01 04:44:54;;;;;;;0.50;0.22;;;16.50;91.20;;;;;;5035967;28;20413;-63
2022/11/01 04:47:19;;;;;;;1.50;0.35;;;16.40;91.30;;;;;;5035524;28;20018;-63
2022/11/01 04:49:45;;;;;;;1.17;0.35;;;16.40;91.60;;;;;;5035685;28;20068;-63
2022/11/01 04:52:10;;;;;;;0.98;0.30;;;16.30;91.70;;;;;;5035593;28;20021;-63
2022/11/01 04:54:36;;;;;;;3.28;0.40;;;16.20;91.80;;;;;;5031676;28;20034;-63
2022/11/01 04:57:03;;;;;;;2.35;0.40;;;16.20;91.90;;;;;;5032824;28;20052;-63
2022/11/01 04:59:29;;;;;;;1.65;0.32;;;16.10;91.90;;;;;;5024153;28;20064;-63
2022/11/01 05:01:54;;;;;;;1.25;0.30;;;16.10;92.00;;;;;;5019507;28;20026;-63
2022/11/01 05:04:20;;;;;;;1.40;0.30;;;16.00;92.00;;;;;;5023958;28;20072;-63
2022/11/01 05:06:45;;;;;;;4.28;0.60;;;16.00;92.20;;;;;;5032452;28;20109;-63
2022/11/01 05:09:11;;;;;;;2.80;0.40;;;15.90;92.30;;;;;;5031028;28;20033;-63
2022/11/01 05:11:36;;;;;;;3.03;0.40;;;15.90;92.40;;;;;;5032665;28;20091;-63
2022/11/01 05:14:02;;;;;;;5.03;0.50;;;15.80;92.40;;;;;;5035768;28;20397;-63
2022/11/01 05:16:27;;;;;;;2.55;0.60;;;15.80;92.40;;;;;;5035196;28;20405;-63
2022/11/01 05:18:53;;;;;;;2.20;0.40;;;15.70;92.50;;;;;;5039968;28;20029;-63
2022/11/01 05:21:18;;;;;;;2.28;0.55;;;15.70;92.60;;;;;;5050596;28;20057;-63
2022/11/01 05:23:47;;;;;;;4.50;0.50;;;15.70;92.60;;;;;;5035064;28;20034;-63
2022/11/01 05:26:12;;;;;;;3.87;0.53;;;15.60;92.50;;;;;;5030689;28;20497;-63
2022/11/01 05:28:38;;;;;;;1.92;0.50;;;15.60;92.70;;;;;;5028957;28;20029;-63
2022/11/01 05:31:04;;;;;;;3.30;0.45;;;15.50;92.70;;;;;;5035476;28;20053;-63
2022/11/01 05:33:29;;;;;;;1.05;0.40;;;15.40;92.80;;;;;;5034829;28;20030;-63
2022/11/01 05:35:55;;;;;;;2.72;0.50;;;15.40;92.80;;;;;;5035009;28;20034;-63
2022/11/01 05:38:20;;;;;;;1.92;0.40;;;15.40;92.80;;;;;;5033452;28;20078;-63
2022/11/01 05:40:46;;;;;;;3.85;0.90;;;15.40;92.50;;;;;;5026760;28;20022;-63
2022/11/01 05:43:11;;;;;;;2.20;0.50;;;15.40;92.60;;;;;;5029363;28;20017;-63
2022/11/01 05:45:37;;;;;;;3.65;0.50;;;15.30;92.60;;;;;;5034445;28;20049;-63
2022/11/01 05:48:03;;;;;;;5.60;0.85;;;15.30;92.60;;;;;;5034269;28;20033;-63
2022/11/01 05:50:29;;;;;;;3.35;0.65;;;15.20;92.30;;;;;;5033682;28;20022;-63
2022/11/01 05:53:03;;;;;;;4.53;0.45;;;15.20;92.10;;;;;;5034476;28;20033;-63
2022/11/01 05:55:29;;;;;;;2.15;0.65;;;15.20;91.80;;;;;;5034436;28;20417;-63
2022/11/01 05:57:58;;;;;;;4.38;0.40;;;15.10;91.60;;;;;;5034344;28;20025;-63
2022/11/01 06:00:23;;;;;;;3.13;0.55;;;15.00;91.60;;;;;;5021426;28;20057;-63
2022/11/01 06:02:49;;;;;;;3.08;0.52;;;15.00;91.50;;;;;;5034386;28;20091;-63
2022/11/01 06:05:14;;;;;;;5.28;0.80;;;14.90;91.30;;;;;;5033723;28;20021;-63
2022/11/01 06:07:40;;;;;;;4.45;1.35;;;14.90;91.20;;;;;;5034294;28;20129;-63
2022/11/01 06:10:06;;;;;;;2.78;0.50;;;14.90;91.20;;;;;;5032114;28;20492;-63
2022/11/01 06:12:32;;;;;;;2.35;0.50;;;14.80;91.30;;;;;;5034242;28;20029;-63
2022/11/01 06:14:57;;;;;;;2.45;0.40;;;14.80;91.30;;;;;;5032723;28;20024;-63
2022/11/01 06:17:23;;;;;;;2.22;0.40;;;14.70;91.20;;;;;;5029338;28;20056;-63
2022/11/01 06:19:49;;;;;;;4.30;0.85;;;14.70;91.30;;;;;;5032187;28;20392;-63
2022/11/01 06:22:14;;;;;;;3.70;0.80;;;14.60;91.40;;;;;;5031542;28;20596;-63
2022/11/01 06:24:40;;;;;;;3.10;0.40;;;14.60;91.50;;;;;;5031522;28;20021;-63
2022/11/01 06:27:06;;;;;;;3.13;0.43;;;14.60;91.70;;;;;;5031199;28;20092;-63
2022/11/01 06:29:31;;;;;;;4.95;0.52;;;14.50;91.80;;;;;;5031266;28;20393;-63
2022/11/01 06:31:56;;;;;;;4.47;0.70;;;14.50;92.10;;;;;;5031072;28;20140;-63
2022/11/01 06:34:24;;;;;;;4.00;0.80;;;14.50;92.20;;;;;;5031039;28;20021;-63
2022/11/01 06:36:50;;;;;;;3.75;0.50;;;14.40;92.50;;;;;;5027704;28;20048;-63
2022/11/01 06:39:16;;;;;;;3.67;0.57;;;14.40;92.70;;;;;;5030885;28;20469;-63
2022/11/01 06:41:42;;;;;;;4.47;0.88;;;14.30;92.50;;;;;;5031720;28;20116;-63
2022/11/01 06:44:07;;;;;;;3.80;0.80;;;14.30;92.10;;;;;;5018218;28;20075;-63
2022/11/01 06:46:33;;;;;;;5.07;1.10;;;14.30;92.20;;;;;;5020559;28;20591;-63
2022/11/01 06:48:58;;;;;;;5.55;0.98;;;14.20;91.70;;;;;;5024879;28;20021;-63
2022/11/01 06:51:24;;;;;;;4.97;0.95;;;14.20;91.50;;;;;;5018709;28;20509;-63
2022/11/01 06:53:49;;;;;;;3.83;0.73;;;14.20;91.40;;;;;;5028308;28;20029;-63
2022/11/01 06:56:15;;;;;;;5.85;1.00;;;14.20;91.10;;;;;;5023868;28;20034;-63
2022/11/01 06:58:40;;;;;;;7.95;0.95;;;14.20;90.70;;;;;;5024804;28;20485;-63
2022/11/01 07:01:08;;;;;;;3.67;0.70;;;14.20;90.70;;;;;;5024647;28;20142;-63
2022/11/01 07:03:33;;;;;;;5.93;0.93;;;14.20;90.60;;;;;;5022340;28;20022;-63
2022/11/01 07:05:59;;;;;;;6.32;1.05;;;14.20;90.70;;;;;;5021419;28;20547;-63
2022/11/01 07:08:28;;;;;;;4.45;0.80;;;14.10;90.80;;;;;;5029272;28;20505;-63
2022/11/01 07:10:53;;;;;;;4.80;0.90;;;14.10;90.80;;;;;;5026266;28;20036;-63
2022/11/01 07:13:19;;;;;;;5.78;1.10;;;14.10;91.00;;;;;;5028698;28;20022;-63
2022/11/01 07:15:44;;;;;;;5.65;0.90;;;14.10;91.00;;;;;;5027258;28;20037;-63
2022/11/01 07:18:10;;;;;;;5.53;0.95;;;14.10;91.20;;;;;;5026512;28;20032;-63
2022/11/01 07:20:42;;;;;;;9.05;1.15;;;14.10;91.30;;;;;;5028589;28;20038;-63
2022/11/01 07:23:13;;;;;;;4.22;0.60;;;14.10;91.40;;;;;;5026416;28;20395;-63
2022/11/01 07:25:38;;;;;;;6.90;1.15;;;14.10;91.60;;;;;;5026325;28;20112;-63
2022/11/01 07:28:04;;;;;;;5.25;0.80;;;14.10;91.90;;;;;;5031415;28;20104;-63
2022/11/01 07:30:29;;;;;;;4.97;0.60;;;14.10;92.10;;;;;;5027701;28;20025;-63
2022/11/01 07:32:57;;;;;;;5.82;0.80;;;14.00;92.10;;;;;;5012866;28;20034;-63
2022/11/01 07:35:23;;;;;;;5.13;0.90;;;14.00;92.30;;;;;;5031091;28;20465;-63
2022/11/01 07:37:49;;;;;;;7.47;1.10;;;14.00;92.40;;;;;;5030808;28;20049;-63
2022/11/01 07:40:15;;;;;;;6.72;1.00;;;14.00;92.40;;;;;;5030706;28;20104;-63
2022/11/01 07:42:42;;;;;;;7.25;1.40;;;14.00;92.50;;;;;;5030945;28;20040;-63
2022/11/01 07:45:09;;;;;;;5.97;1.30;;;14.00;92.60;;;;;;5029134;28;20505;-63
2022/11/01 07:47:34;;;;;;;6.00;1.00;;;14.00;92.60;;;;;;5030770;28;20064;-63
2022/11/01 07:49:59;;;;;;;7.25;1.20;;;14.00;92.10;;;;;;5031606;28;20025;-63
2022/11/01 07:52:25;;;;;;;5.80;0.95;;;14.00;92.00;;;;;;5030206;28;20029;-63
2022/11/01 07:54:50;;;;;;;9.15;1.30;;;14.10;92.20;;;;;;5028664;28;20025;-63
2022/11/01 07:57:16;;;;;;;7.05;1.08;;;14.10;92.10;;;;;;5029313;28;20292;-63
2022/11/01 07:59:41;;;;;;;5.35;1.33;;;14.10;92.00;;;;;;5029929;28;20033;-63
2022/11/01 08:02:08;;;;;;;7.72;1.08;;;14.10;92.10;;;;;;5031611;28;20096;-63
2022/11/01 08:04:33;;;;;;;8.10;1.48;;;14.10;92.20;;;;;;5032114;28;20025;-63
2022/11/01 08:06:59;;;;;;;7.65;1.25;;;14.10;92.00;;;;;;5029728;28;20436;-63
2022/11/01 08:09:24;;;;;;;5.18;0.95;;;14.10;92.00;;;;;;5025130;28;20018;-63
2022/11/01 08:11:50;;;;;;;10.73;1.88;;;14.10;91.80;;;;;;5031426;28;20033;-63
2022/11/01 08:14:15;;;;;;;6.60;1.15;;;14.10;92.10;;;;;;5035798;28;20033;-63
2022/11/01 08:16:41;;;;;;;7.82;1.33;;;14.10;92.30;;;;;;5036982;28;20076;-63
2022/11/01 08:19:07;;;;;;;10.18;0.90;;;14.10;92.30;;;;;;5034193;28;20045;-63
2022/11/01 08:21:33;;;;;;;7.72;1.30;;;14.10;92.10;;;;;;5025115;28;20018;-63
2022/11/01 08:23:58;;;;;;;9.77;1.83;;;14.10;92.30;;;;;;5032216;28;20167;-63
2022/11/01 08:26:24;;;;;;;7.53;1.42;;;14.10;92.20;;;;;;5038460;28;20022;-63
2022/11/01 08:28:51;;;;;;;8.25;1.35;;;14.10;92.40;;;;;;5036405;28;20447;-63
2022/11/01 08:31:16;;;;;;;8.40;1.40;;;14.10;92.10;;;;;;5058911;28;20504;-63
2022/11/01 08:33:42;;;;;;;8.65;1.42;;;14.10;92.30;;;;;;5037471;28;20037;-63
2022/11/01 08:36:07;;;;;;;7.35;1.20;;;14.10;92.20;;;;;;5035220;28;20500;-63
2022/11/01 08:38:33;;;;;;;5.82;1.10;;;14.10;92.10;;;;;;5032184;28;20149;-63
2022/11/01 08:40:59;;;;;;;8.77;1.52;;;14.20;92.30;;;;;;5038686;28;20461;-63
2022/11/01 08:43:24;;;;;;;12.70;1.92;;;14.20;92.10;;;;;;5031808;28;20084;-63
2022/11/01 08:45:50;;;;;;;8.88;1.45;;;14.20;91.90;;;;;;5037330;28;20057;-63
2022/11/01 08:48:16;;;;;;;9.23;1.45;;;14.20;92.00;;;;;;5036456;28;20417;-63
2022/11/01 08:50:41;;;;;;;7.38;1.08;;;14.20;91.90;;;;;;5036328;28;20064;-63
2022/11/01 08:53:14;;;;;;;16.38;2.63;;;14.30;91.80;;;;;;5035991;28;20478;-63
2022/11/01 08:55:42;;;;;;;10.40;2.22;;;14.40;91.70;;;;;;5038404;28;20033;-63
2022/11/01 08:58:08;;;;;;;14.27;1.70;;;14.40;91.40;;;;;;5033070;28;20021;-63
2022/11/01 09:00:34;;;;;;;9.63;2.33;;;14.40;91.70;;;;;;5025289;28;20363;-63
2022/11/01 09:03:00;;;;;;;13.30;2.08;;;14.40;91.20;;;;;;5037243;28;20021;-63
2022/11/01 09:05:27;;;;;;;12.50;1.83;;;14.40;91.20;;;;;;5038153;28;20036;-63
2022/11/01 09:07:59;;;;;;;10.13;1.42;;;14.40;91.40;;;;;;5036455;28;20028;-63
2022/11/01 09:10:25;;;;;;;15.70;2.13;;;14.50;91.40;;;;;;5037803;28;20029;-63
2022/11/01 09:12:50;;;;;;;9.32;2.00;;;14.50;91.40;;;;;;5038167;28;20041;-63
2022/11/01 09:15:16;;;;;;;8.52;1.83;;;14.60;91.30;;;;;;5038404;28;20480;-63
2022/11/01 09:17:42;;;;;;;10.13;1.55;;;14.60;91.50;;;;;;5036554;28;20037;-63
2022/11/01 09:20:08;;;;;;;11.70;2.22;;;14.60;91.10;;;;;;5038355;28;20057;-63
2022/11/01 09:22:36;;;;;;;7.57;1.50;;;14.60;91.10;;;;;;5038212;28;20010;-63
2022/11/01 09:25:03;;;;;;;5.80;1.20;;;14.70;90.90;;;;;;5037552;28;20017;-63
2022/11/01 09:27:28;;;;;;;9.00;2.45;;;14.80;91.00;;;;;;5033348;28;20108;-63
2022/11/01 09:29:54;;;;;;;8.52;1.23;;;14.80;91.00;;;;;;5035235;28;20148;-63
2022/11/01 09:32:20;;;;;;;10.82;1.77;;;14.90;90.90;;;;;;5035082;28;20028;-63
2022/11/01 09:34:47;;;;;;;14.35;1.67;;;14.90;90.60;;;;;;5035087;28;20025;-63
2022/11/01 09:37:14;;;;;;;7.45;1.20;;;15.00;90.40;;;;;;5034366;28;20059;-63
2022/11/01 09:39:39;;;;;;;8.60;1.65;;;15.00;90.50;;;;;;5034968;28;20038;-63
2022/11/01 09:42:26;;;;;;;12.88;2.08;;;15.10;90.30;;;;;;5034466;28;20075;-63
2022/11/01 09:44:57;;;;;;;6.82;1.55;;;15.20;90.00;;;;;;5034393;28;20103;-63
2022/11/01 09:47:27;;;;;;;8.32;2.05;;;15.20;90.00;;;;;;5034797;28;20032;-63
2022/11/01 09:50:16;;;;;;;11.52;1.60;;;15.40;90.30;;;;;;5033085;28;20104;-63
2022/11/01 09:52:42;;;;;;;6.50;1.03;;;15.60;90.40;;;;;;5034566;28;20397;-63
2022/11/01 09:55:15;;;;;;;12.13;2.42;;;16.00;90.40;;;;;;5034492;28;20786;-63
2022/11/01 09:58:07;;;;;;;9.38;1.58;;;17.20;86.20;;;;;;5032471;28;20051;-64
2022/11/01 10:00:37;;;;;;;11.20;1.80;;;17.50;82.00;;;;;;5033130;28;20565;-63
2022/11/01 10:03:02;;;;;;;7.50;1.50;;;17.20;81.80;;;;;;5034274;28;20029;-63
2022/11/01 10:05:43;;;;;;;10.27;1.92;;;17.40;81.40;;;;;;5034398;28;20020;-63
2022/11/01 10:08:48;;;;;;;8.27;1.55;;;17.80;80.80;;;;;;5033954;28;20021;-63
2022/11/01 10:11:24;;;;;;;8.88;2.25;;;18.90;78.90;;;;;;5018628;28;20038;-63
2022/11/01 10:14:09;;;;;;;9.90;1.80;;;20.00;74.20;;;;;;5034292;28;20504;-63
2022/11/01 10:16:40;;;;;;;7.78;2.15;;;20.60;71.20;;;;;;5033166;28;20053;-63
2022/11/01 10:19:13;;;;;;;7.60;1.35;;;21.40;67.50;;;;;;5033797;28;20478;-63
2022/11/01 10:21:59;;;;;;;6.22;1.30;;;22.10;65.50;;;;;;5033408;28;20041;-63
2022/11/01 10:24:37;;;;;;;6.78;2.15;;;23.20;62.70;;;;;;5045452;28;20025;-63
2022/11/01 10:27:17;;;;;;;7.60;1.50;;;24.40;58.50;;;;;;5028297;28;20072;-64
2022/11/01 10:30:01;;;;;;;7.93;1.90;;;24.80;55.40;;;;;;5031824;28;20044;-63
2022/11/01 10:32:38;;;;;;;9.27;1.98;;;25.50;54.10;;;;;;5031837;28;20021;-64
2022/11/01 10:35:13;;;;;;;8.27;1.73;;;26.00;53.20;;;;;;5030897;28;20393;-64
2022/11/01 10:37:45;;;;;;;9.63;2.05;;;26.60;51.50;;;;;;5032383;28;20117;-64
2022/11/01 10:40:19;;;;;;;7.85;1.77;;;27.10;50.80;;;;;;5024496;28;20025;-64
2022/11/01 10:42:44;;;;;;;6.25;1.67;;;27.10;49.70;;;;;;5020776;28;20030;-64
2022/11/01 10:45:18;;;;;;;6.80;1.52;;;27.20;48.70;;;;;;5031765;28;20407;-64
2022/11/01 10:47:45;;;;;;;6.80;1.65;;;27.00;47.70;;;;;;5028584;28;20053;-64
2022/11/01 10:50:10;;;;;;;5.65;1.40;;;26.00;49.90;;;;;;5032282;28;20053;-64
2022/11/01 10:52:51;;;;;;;4.95;1.40;;;25.40;50.40;;;;;;5033619;28;20447;-64
2022/11/01 10:55:25;;;;;;;7.88;1.77;;;25.60;50.60;;;;;;5026163;28;20049;-64
2022/11/01 10:58:04;;;;;;;7.38;1.73;;;25.60;49.80;;;;;;5027512;28;20040;-64
2022/11/01 11:00:32;;;;;;;5.55;1.55;;;25.90;50.00;;;;;;5019166;28;20604;-64
2022/11/01 11:03:05;;;;;;;6.13;1.63;;;26.40;48.80;;;;;;5031044;28;20044;-64
2022/11/01 11:05:32;;;;;;;5.75;1.80;;;27.20;48.00;;;;;;5029000;28;20018;-64
2022/11/01 11:08:00;;;;;;;7.47;1.63;;;27.40;46.50;;;;;;5017074;28;20044;-64
2022/11/01 11:10:27;;;;;;;6.63;1.45;;;27.20;46.90;;;;;;5032020;28;20021;-64
2022/11/01 11:12:59;;;;;;;6.97;1.40;;;27.40;47.50;;;;;;5033245;28;20044;-64
2022/11/01 11:15:44;;;;;;;5.28;1.42;;;27.90;46.20;;;;;;5031833;28;20393;-64
2022/11/01 11:18:22;;;;;;;6.78;1.52;;;28.70;45.70;;;;;;5021116;28;20496;-64
2022/11/01 11:20:54;;;;;;;7.87;1.87;;;28.60;44.70;;;;;;5032644;28;20083;-64
2022/11/01 11:23:21;;;;;;;5.75;2.08;;;28.50;45.00;;;;;;5033036;28;20380;-64
2022/11/01 11:25:49;;;;;;;7.68;1.75;;;28.40;44.60;;;;;;5019632;28;20128;-64
2022/11/01 11:28:26;;;;;;;6.57;1.70;;;28.10;45.00;;;;;;5032975;28;20026;-64
2022/11/01 11:30:52;;;;;;;4.30;1.50;;;28.10;45.20;;;;;;5032909;28;20521;-64
2022/11/01 11:33:18;;;;;;;5.95;1.50;;;28.50;45.30;;;;;;5033087;28;20032;-65
2022/11/01 11:35:54;;;;;;;5.80;1.60;;;29.00;44.00;;;;;;5047743;28;20555;-64
2022/11/01 11:38:43;;;;;;;4.72;1.38;;;28.90;43.80;;;;;;5029729;28;20100;-64
2022/11/01 11:41:10;;;;;;;5.63;1.70;;;28.90;43.80;;;;;;5023029;28;20482;-64
2022/11/01 11:43:39;;;;;;;4.30;1.35;;;28.70;44.30;;;;;;5032114;28;20040;-64
2022/11/01 11:46:22;;;;;;;9.15;1.90;;;28.50;43.30;;;;;;5031144;28;20127;-64
2022/11/01 11:49:05;;;;;;;6.47;1.38;;;28.50;43.70;;;;;;5031137;28;20028;-64
2022/11/01 11:51:37;;;;;;;7.63;1.50;;;28.20;44.10;;;;;;5031020;28;20442;-64
2022/11/01 11:54:30;;;;;;;4.95;1.70;;;28.10;43.70;;;;;;5032319;28;20477;-64
2022/11/01 11:57:28;;;;;;;5.53;1.45;;;27.90;44.00;;;;;;5021459;28;20121;-64
2022/11/01 12:00:04;;;;;;;5.57;1.63;;;28.00;44.70;;;;;;5009223;28;20030;-64
2022/11/01 12:02:34;;;;;;;4.70;1.30;;;28.50;44.60;;;;;;5032859;28;20037;-64
2022/11/01 12:05:07;;;;;;;6.75;1.48;;;28.80;43.70;;;;;;5032363;28;20116;-64
2022/11/01 12:07:48;;;;;;;3.92;1.33;;;28.60;42.80;;;;;;5021857;28;20109;-64
2022/11/01 12:10:37;;;;;;;7.43;1.70;;;28.30;44.00;;;;;;5025925;28;20014;-64
2022/11/01 12:13:33;;;;;;;5.22;1.38;;;28.50;43.50;;;;;;5025682;28;20502;-64
2022/11/01 12:16:23;;;;;;;6.63;1.83;;;28.10;43.60;;;;;;5028198;28;20030;-64
2022/11/01 12:18:49;;;;;;;6.55;1.67;;;27.90;43.80;;;;;;5032487;28;20032;-64
2022/11/01 12:21:40;;;;;;;5.93;1.27;;;27.30;44.90;;;;;;5013444;28;20026;-64
2022/11/01 12:24:21;;;;;;;7.13;1.30;;;26.50;45.70;;;;;;5028777;28;20037;-64
2022/11/01 12:26:48;;;;;;;5.75;1.70;;;26.50;46.80;;;;;;5032380;28;20056;-64
2022/11/01 12:29:32;;;;;;;5.53;1.27;;;26.30;47.30;;;;;;5012540;28;20053;-64
2022/11/01 12:32:07;;;;;;;5.07;1.52;;;26.50;47.00;;;;;;5025634;28;20543;-64
2022/11/01 12:34:37;;;;;;;4.95;1.35;;;25.80;46.80;;;;;;5013764;28;20030;-64
2022/11/01 12:37:14;;;;;;;7.03;1.73;;;25.50;47.70;;;;;;5015567;28;20044;-64
2022/11/01 12:40:00;;;;;;;8.10;1.55;;;24.90;47.80;;;;;;5014182;28;20026;-64
2022/11/01 12:42:36;;;;;;;6.07;1.20;;;24.00;50.40;;;;;;5021337;28;20020;-64
2022/11/01 12:45:28;;;;;;;4.22;1.48;;;23.80;50.80;;;;;;5018171;28;20382;-63
2022/11/01 12:48:02;;;;;;;5.85;1.95;;;23.00;52.40;;;;;;5015084;28;20018;-64
2022/11/01 12:50:42;;;;;;;4.15;1.20;;;22.30;54.20;;;;;;5014047;28;20025;-63
2022/11/01 12:53:36;;;;;;;5.30;1.75;;;22.50;54.30;;;;;;5026550;28;20022;-64
2022/11/01 12:56:02;;;;;;;5.75;1.30;;;22.10;54.70;;;;;;5025553;28;20033;-63
2022/11/01 12:58:27;;;;;;;3.78;0.90;;;21.60;56.30;;;;;;5030113;28;20482;-63
2022/11/01 13:01:19;;;;;;;5.97;1.45;;;21.60;57.10;;;;;;5019591;28;20109;-63
2022/11/01 13:04:36;;;;;;;6.50;1.38;;;21.40;56.80;;;;;;5021398;28;20017;-63
2022/11/01 13:07:27;;;;;;;4.97;1.08;;;22.60;56.20;;;;;;5010011;28;20473;-63